Time;durP1;ratioP1;P1;durP2;ratioP2;P2;SDS_P1;SDS_P2;PMS_P1;PMS_P2;Temp;Humidity;BMP_temperature;BMP_pressure;BME280_temperature;BME280_humidity;BME280_pressure;Samples;Min_cycle;Max_cycle;Signal;HPM_P1;HPM_P2
2023/11/10 00:00:36;;;;;;;4.60;4.20;;;;;;;;;;5042133;28;20470;-81
2023/11/10 00:03:02;;;;;;;4.63;4.22;;;;;;;;;;5042357;28;20407;-82
2023/11/10 00:05:29;;;;;;;4.32;4.03;;;;;;;;;;5043051;28;20387;-82
2023/11/10 00:07:56;;;;;;;3.72;3.42;;;;;;;;;;5043061;28;20398;-82
2023/11/10 00:10:23;;;;;;;3.38;3.17;;;;;;;;;;5041152;28;20386;-82
2023/11/10 00:12:49;;;;;;;3.97;3.63;;;;;;;;;;5031905;28;20404;-82
2023/11/10 00:15:15;;;;;;;3.20;3.00;;;;;;;;;;5037329;28;20468;-82
2023/11/10 00:17:41;;;;;;;3.40;3.10;;;;;;;;;;5039877;28;20466;-82
2023/11/10 00:20:07;;;;;;;3.47;3.17;;;;;;;;;;5039654;28;20801;-82
2023/11/10 00:22:39;;;;;;;3.47;3.20;;;;;;;;;;5039980;28;20472;-82
2023/11/10 00:25:06;;;;;;;3.42;3.20;;;;;;;;;;5039432;28;20379;-82
2023/11/10 00:27:32;;;;;;;3.85;3.53;;;;;;;;;;5039377;28;20387;-82
2023/11/10 00:29:58;;;;;;;3.40;3.10;;;;;;;;;;5039184;28;20386;-82
2023/11/10 00:32:25;;;;;;;3.77;3.47;;;;;;;;;;5021515;28;20403;-82
2023/11/10 00:34:52;;;;;;;3.90;3.60;;;;;;;;;;5039349;28;20423;-82
2023/11/10 00:37:18;;;;;;;3.25;2.95;;;;;;;;;;5039166;28;20379;-82
2023/11/10 00:39:44;;;;;;;3.60;3.30;;;;;;;;;;5039865;28;20783;-82
2023/11/10 00:42:10;;;;;;;3.00;2.80;;;;;;;;;;5039521;28;20433;-82
2023/11/10 00:44:36;;;;;;;3.67;3.38;;;;;;;;;;5038710;28;20406;-82
2023/11/10 00:47:02;;;;;;;5.60;4.55;;;;;;;;;;5039938;28;20472;-82
2023/11/10 00:49:28;;;;;;;4.70;4.30;;;;;;;;;;5039467;28;20951;-82
2023/11/10 00:51:54;;;;;;;4.65;4.03;;;;;;;;;;5039389;28;20883;-82
2023/11/10 00:54:20;;;;;;;4.28;3.92;;;;;;;;;;5038146;28;20935;-82
2023/11/10 00:56:47;;;;;;;3.90;3.60;;;;;;;;;;5039396;28;20411;-82
2023/11/10 00:59:13;;;;;;;4.07;3.43;;;;;;;;;;5039389;28;20529;-82
2023/11/10 01:01:39;;;;;;;3.13;2.92;;;;;;;;;;5039047;28;20808;-82
2023/11/10 01:04:06;;;;;;;3.00;2.80;;;;;;;;;;5039339;28;20422;-82
2023/11/10 01:06:32;;;;;;;3.20;2.90;;;;;;;;;;5039289;28;20379;-82
2023/11/10 01:08:58;;;;;;;3.25;3.05;;;;;;;;;;5039258;28;20387;-83
2023/11/10 01:11:24;;;;;;;3.40;3.10;;;;;;;;;;5039340;28;20406;-82
2023/11/10 01:13:50;;;;;;;3.50;3.20;;;;;;;;;;5038823;28;20454;-82
2023/11/10 01:16:16;;;;;;;3.50;3.20;;;;;;;;;;5039707;28;20390;-82
2023/11/10 01:18:42;;;;;;;3.28;3.00;;;;;;;;;;5038895;28;20406;-81
2023/11/10 01:21:09;;;;;;;3.20;3.00;;;;;;;;;;5021361;28;20403;-82
2023/11/10 01:23:35;;;;;;;3.05;2.85;;;;;;;;;;5038321;28;20394;-82
2023/11/10 01:26:01;;;;;;;3.53;3.22;;;;;;;;;;5021098;28;20402;-82
2023/11/10 01:28:27;;;;;;;2.95;2.75;;;;;;;;;;5039084;28;20394;-82
2023/11/10 01:30:53;;;;;;;4.80;2.65;;;;;;;;;;5039034;28;20401;-82
2023/11/10 01:33:19;;;;;;;3.58;3.28;;;;;;;;;;5039012;28;20477;-82
2023/11/10 01:35:46;;;;;;;3.03;2.83;;;;;;;;;;5038793;28;20426;-82
2023/11/10 01:38:12;;;;;;;3.28;2.85;;;;;;;;;;5038925;28;20375;-82
2023/11/10 01:40:41;;;;;;;3.50;3.17;;;;;;;;;;5038887;28;20384;-82
2023/11/10 01:43:11;;;;;;;3.00;2.80;;;;;;;;;;5039081;28;20725;-82
2023/11/10 01:45:37;;;;;;;2.97;2.78;;;;;;;;;;5038534;28;20387;-82
2023/11/10 01:48:04;;;;;;;3.10;2.80;;;;;;;;;;5038385;28;20395;-82
2023/11/10 01:50:31;;;;;;;2.93;2.63;;;;;;;;;;5038211;28;20410;-82
2023/11/10 01:52:57;;;;;;;3.47;3.20;;;;;;;;;;5038400;28;20387;-82
2023/11/10 01:55:24;;;;;;;3.00;2.80;;;;;;;;;;5020391;28;20419;-82
2023/11/10 01:57:50;;;;;;;3.03;2.83;;;;;;;;;;5037699;28;20718;-82
2023/11/10 02:00:16;;;;;;;3.00;2.80;;;;;;;;;;5038149;28;20384;-82
2023/11/10 02:02:43;;;;;;;2.97;2.78;;;;;;;;;;5039576;28;20387;-82
2023/11/10 02:05:09;;;;;;;3.50;3.20;;;;;;;;;;5038558;28;20387;-82
2023/11/10 02:07:35;;;;;;;3.63;3.33;;;;;;;;;;5038773;28;20387;-82
2023/11/10 02:10:01;;;;;;;3.53;3.22;;;;;;;;;;5037490;28;20383;-81
2023/11/10 02:12:27;;;;;;;3.58;3.28;;;;;;;;;;5034289;28;20391;-81
2023/11/10 02:14:53;;;;;;;3.83;3.53;;;;;;;;;;5035055;28;20497;-81
2023/11/10 02:17:20;;;;;;;4.05;3.75;;;;;;;;;;5036432;28;20407;-82
2023/11/10 02:19:46;;;;;;;4.10;3.75;;;;;;;;;;5036240;28;20402;-82
2023/11/10 02:22:12;;;;;;;3.75;3.45;;;;;;;;;;5035763;28;20478;-81
2023/11/10 02:24:41;;;;;;;3.50;3.20;;;;;;;;;;5036413;28;20423;-81
2023/11/10 02:27:07;;;;;;;3.75;3.45;;;;;;;;;;5036385;28;20384;-83
2023/11/10 02:29:38;;;;;;;3.50;3.30;;;;;;;;;;5035785;28;20379;-82
2023/11/10 02:32:04;;;;;;;3.47;3.22;;;;;;;;;;5037202;28;20752;-82
2023/11/10 02:34:31;;;;;;;3.88;3.47;;;;;;;;;;5018210;28;20912;-82
2023/11/10 02:36:57;;;;;;;3.20;3.00;;;;;;;;;;5014409;28;20467;-82
2023/11/10 02:39:24;;;;;;;3.70;3.40;;;;;;;;;;5025934;28;20771;-82
2023/11/10 02:41:54;;;;;;;3.40;3.13;;;;;;;;;;5018426;28;20390;-82
2023/11/10 02:44:20;;;;;;;3.20;3.00;;;;;;;;;;5015743;28;20900;-82
2023/11/10 02:46:46;;;;;;;3.25;3.05;;;;;;;;;;5014989;28;20392;-82
2023/11/10 02:49:12;;;;;;;3.30;3.10;;;;;;;;;;5015469;28;20766;-82
2023/11/10 02:51:38;;;;;;;3.80;3.40;;;;;;;;;;5016959;28;20401;-82
2023/11/10 02:54:04;;;;;;;3.95;3.60;;;;;;;;;;5017348;28;20424;-82
2023/11/10 02:56:30;;;;;;;3.83;3.53;;;;;;;;;;5019675;28;20397;-82
2023/11/10 02:58:56;;;;;;;3.90;3.60;;;;;;;;;;5037900;28;20403;-82
2023/11/10 03:01:24;;;;;;;3.70;3.40;;;;;;;;;;5036801;28;20387;-83
2023/11/10 03:03:50;;;;;;;3.60;3.30;;;;;;;;;;5037002;28;20886;-82
2023/11/10 03:06:16;;;;;;;4.30;4.00;;;;;;;;;;5037048;28;20443;-83
2023/11/10 03:08:43;;;;;;;4.55;4.18;;;;;;;;;;5037401;28;20464;-82
2023/11/10 03:11:12;;;;;;;4.20;3.80;;;;;;;;;;5037173;28;20395;-82
2023/11/10 03:13:41;;;;;;;4.40;4.10;;;;;;;;;;5037117;28;20444;-82
2023/11/10 03:16:07;;;;;;;5.43;4.93;;;;;;;;;;5036987;28;20399;-83
2023/11/10 03:18:33;;;;;;;5.88;5.13;;;;;;;;;;5037640;28;20391;-82
2023/11/10 03:21:00;;;;;;;5.20;4.70;;;;;;;;;;5037511;28;20403;-83
2023/11/10 03:23:26;;;;;;;5.93;5.20;;;;;;;;;;5038181;28;20780;-82
2023/11/10 03:25:52;;;;;;;5.50;5.10;;;;;;;;;;5038073;28;20817;-82
2023/11/10 03:28:19;;;;;;;5.35;4.95;;;;;;;;;;5038236;28;20391;-82
2023/11/10 03:30:45;;;;;;;5.40;4.90;;;;;;;;;;5038283;28;20861;-82
2023/11/10 03:33:11;;;;;;;5.47;4.97;;;;;;;;;;5038424;28;20888;-82
2023/11/10 03:35:37;;;;;;;5.78;5.25;;;;;;;;;;5038047;28;20419;-82
2023/11/10 03:38:04;;;;;;;6.40;5.80;;;;;;;;;;5038761;28;20394;-82
2023/11/10 03:40:30;;;;;;;6.78;6.18;;;;;;;;;;5038966;28;20386;-81
2023/11/10 03:42:56;;;;;;;9.45;8.00;;;;;;;;;;5038778;28;20475;-82
2023/11/10 03:45:22;;;;;;;9.93;8.48;;;;;;;;;;5039598;28;20406;-83
2023/11/10 03:47:49;;;;;;;9.23;8.32;;;;;;;;;;5042708;28;20387;-82
2023/11/10 03:50:16;;;;;;;9.30;8.38;;;;;;;;;;5043837;28;20386;-82
2023/11/10 03:52:42;;;;;;;6.93;6.25;;;;;;;;;;5043560;28;20409;-82
2023/11/10 03:55:08;;;;;;;6.60;6.00;;;;;;;;;;5043420;28;20419;-82
2023/11/10 03:57:34;;;;;;;5.20;4.80;;;;;;;;;;5043914;28;20393;-82
2023/11/10 04:00:00;;;;;;;5.00;4.50;;;;;;;;;;5043057;28;20390;-82
2023/11/10 04:02:26;;;;;;;4.40;4.10;;;;;;;;;;5025469;28;20395;-82
2023/11/10 04:04:52;;;;;;;4.25;3.88;;;;;;;;;;5042820;28;20387;-82
2023/11/10 04:07:19;;;;;;;3.85;3.55;;;;;;;;;;5042360;28;20391;-82
2023/11/10 04:09:45;;;;;;;2.08;1.98;;;;;;;;;;5042325;28;20440;-82
2023/11/10 04:12:11;;;;;;;3.10;2.80;;;;;;;;;;5042085;28;20402;-82
2023/11/10 04:14:40;;;;;;;2.30;2.10;;;;;;;;;;5041615;28;20419;-82
2023/11/10 04:17:06;;;;;;;3.92;3.63;;;;;;;;;;5058170;28;20738;-82
2023/11/10 04:19:33;;;;;;;2.17;1.98;;;;;;;;;;5043398;28;20417;-81
2023/11/10 04:21:59;;;;;;;2.28;1.92;;;;;;;;;;5042558;28;20467;-82
2023/11/10 04:24:26;;;;;;;2.20;1.98;;;;;;;;;;5043553;28;20395;-82
2023/11/10 04:26:52;;;;;;;2.38;1.92;;;;;;;;;;5043183;28;20383;-82
2023/11/10 04:29:18;;;;;;;3.20;1.77;;;;;;;;;;5042864;28;20478;-82
2023/11/10 04:31:44;;;;;;;1.92;1.52;;;;;;;;;;5043239;28;20383;-82
2023/11/10 04:34:10;;;;;;;2.00;1.80;;;;;;;;;;5042537;28;20783;-82
2023/11/10 04:36:39;;;;;;;1.80;1.53;;;;;;;;;;5057993;28;20434;-82
2023/11/10 04:39:05;;;;;;;1.50;1.20;;;;;;;;;;5057777;28;20418;-81
2023/11/10 04:41:32;;;;;;;1.05;0.90;;;;;;;;;;5041865;28;20387;-81
2023/11/10 04:43:59;;;;;;;1.20;0.90;;;;;;;;;;5041843;28;20533;-81
2023/11/10 04:46:25;;;;;;;1.50;1.10;;;;;;;;;;5042305;28;20473;-81
2023/11/10 04:48:51;;;;;;;0.90;0.90;;;;;;;;;;5042429;28;20728;-81
2023/11/10 04:51:17;;;;;;;0.90;0.90;;;;;;;;;;5043214;28;20445;-81
2023/11/10 04:53:43;;;;;;;0.70;0.70;;;;;;;;;;5042240;28;20391;-81
2023/11/10 04:56:09;;;;;;;1.73;0.73;;;;;;;;;;5042967;28;20453;-82
2023/11/10 04:58:35;;;;;;;0.60;0.40;;;;;;;;;;5025592;28;20525;-81
2023/11/10 05:01:01;;;;;;;1.10;0.40;;;;;;;;;;5042389;28;20399;-81
2023/11/10 05:03:31;;;;;;;0.63;0.43;;;;;;;;;;5042733;28;20406;-81
2023/11/10 05:05:57;;;;;;;0.80;0.28;;;;;;;;;;5041652;28;20410;-81
2023/11/10 05:08:23;;;;;;;0.52;0.40;;;;;;;;;;5042618;28;20398;-81
2023/11/10 05:10:49;;;;;;;0.30;0.30;;;;;;;;;;5041613;28;20570;-81
2023/11/10 05:13:15;;;;;;;0.28;0.20;;;;;;;;;;5041806;28;20440;-81
2023/11/10 05:15:42;;;;;;;0.40;0.30;;;;;;;;;;5023744;28;20446;-81
2023/11/10 05:18:11;;;;;;;1.35;0.40;;;;;;;;;;5042400;28;20386;-82
2023/11/10 05:20:37;;;;;;;0.50;0.30;;;;;;;;;;5041682;28;20407;-81
2023/11/10 05:23:03;;;;;;;0.63;0.30;;;;;;;;;;5041156;28;20395;-81
2023/11/10 05:25:29;;;;;;;0.20;0.17;;;;;;;;;;5043689;28;20501;-80
2023/11/10 05:27:55;;;;;;;0.43;0.25;;;;;;;;;;5037681;28;20399;-80
2023/11/10 05:30:21;;;;;;;0.40;0.30;;;;;;;;;;5018987;28;20438;-80
2023/11/10 05:32:47;;;;;;;0.40;0.20;;;;;;;;;;5037042;28;20387;-81
2023/11/10 05:35:13;;;;;;;1.00;0.20;;;;;;;;;;5038210;28;20413;-81
2023/11/10 05:37:39;;;;;;;0.20;0.10;;;;;;;;;;5038587;28;20397;-81
2023/11/10 05:40:09;;;;;;;0.65;0.43;;;;;;;;;;5039849;28;20379;-80
2023/11/10 05:42:36;;;;;;;0.28;0.20;;;;;;;;;;5039690;28;20382;-80
2023/11/10 05:45:02;;;;;;;0.45;0.40;;;;;;;;;;5040506;28;20379;-81
2023/11/10 05:47:28;;;;;;;0.20;0.20;;;;;;;;;;5039428;28;20378;-81
2023/11/10 05:49:54;;;;;;;0.60;0.20;;;;;;;;;;5040163;28;20478;-81
2023/11/10 05:52:21;;;;;;;0.30;0.20;;;;;;;;;;5040328;28;20718;-81
2023/11/10 05:54:47;;;;;;;0.43;0.20;;;;;;;;;;5040827;28;20415;-81
2023/11/10 05:57:14;;;;;;;0.70;0.28;;;;;;;;;;5041406;28;20698;-81
2023/11/10 05:59:41;;;;;;;0.85;0.30;;;;;;;;;;5041318;28;20426;-81
2023/11/10 06:02:09;;;;;;;0.52;0.28;;;;;;;;;;5046030;28;20383;-82
2023/11/10 06:04:35;;;;;;;0.47;0.20;;;;;;;;;;5047638;28;20383;-82
2023/11/10 06:07:01;;;;;;;0.30;0.20;;;;;;;;;;5029180;28;20401;-83
2023/11/10 06:09:28;;;;;;;0.50;0.20;;;;;;;;;;5044710;28;20391;-82
2023/11/10 06:11:54;;;;;;;0.40;0.20;;;;;;;;;;5025272;28;20403;-82
2023/11/10 06:14:20;;;;;;;0.68;0.28;;;;;;;;;;5035355;28;20409;-82
2023/11/10 06:16:47;;;;;;;0.30;0.20;;;;;;;;;;5006928;28;20467;-82
2023/11/10 06:19:15;;;;;;;0.35;0.22;;;;;;;;;;5026999;28;20392;-83
2023/11/10 06:21:41;;;;;;;0.90;0.22;;;;;;;;;;5023704;28;20464;-82
2023/11/10 06:24:08;;;;;;;0.55;0.32;;;;;;;;;;5021209;28;20381;-81
2023/11/10 06:26:35;;;;;;;0.60;0.30;;;;;;;;;;5021745;28;20381;-80
2023/11/10 06:29:03;;;;;;;0.50;0.20;;;;;;;;;;5020787;28;20400;-81
2023/11/10 06:31:29;;;;;;;0.30;0.30;;;;;;;;;;5019858;28;20622;-80
2023/11/10 06:33:55;;;;;;;0.68;0.40;;;;;;;;;;5020022;28;20756;-82
2023/11/10 06:36:21;;;;;;;0.88;0.30;;;;;;;;;;5020233;28;20408;-82
2023/11/10 06:38:47;;;;;;;0.40;0.30;;;;;;;;;;5019885;28;20451;-83
2023/11/10 06:41:14;;;;;;;0.90;0.30;;;;;;;;;;5020396;28;20404;-82
2023/11/10 06:43:40;;;;;;;0.60;0.40;;;;;;;;;;5035198;28;20391;-83
2023/11/10 06:46:07;;;;;;;1.27;0.40;;;;;;;;;;5039148;28;20383;-82
2023/11/10 06:48:33;;;;;;;0.90;0.63;;;;;;;;;;5040227;28;20452;-83
2023/11/10 06:50:59;;;;;;;1.35;0.77;;;;;;;;;;5040326;28;20914;-82
2023/11/10 06:53:25;;;;;;;1.50;0.63;;;;;;;;;;5039642;28;20383;-82
2023/11/10 06:55:51;;;;;;;1.47;0.70;;;;;;;;;;5039517;28;20517;-82
2023/11/10 06:58:17;;;;;;;1.13;0.60;;;;;;;;;;5040029;28;20388;-82
2023/11/10 07:00:46;;;;;;;1.38;0.45;;;;;;;;;;5040219;28;20383;-82
2023/11/10 07:03:14;;;;;;;1.10;0.60;;;;;;;;;;5039999;28;20379;-83
2023/11/10 07:05:40;;;;;;;0.55;0.40;;;;;;;;;;5040070;28;20386;-82
2023/11/10 07:08:09;;;;;;;0.60;0.40;;;;;;;;;;5039705;28;20389;-82
2023/11/10 07:10:44;;;;;;;0.70;0.50;;;;;;;;;;5039829;28;20486;-82
2023/11/10 07:13:10;;;;;;;0.80;0.43;;;;;;;;;;5040600;28;20383;-82
2023/11/10 07:15:36;;;;;;;0.60;0.50;;;;;;;;;;5022249;28;20415;-82
2023/11/10 07:18:02;;;;;;;0.40;0.40;;;;;;;;;;5040739;28;20470;-82
2023/11/10 07:20:30;;;;;;;0.63;0.30;;;;;;;;;;5041991;28;20391;-82
2023/11/10 07:22:56;;;;;;;0.50;0.40;;;;;;;;;;5025328;28;20383;-82
2023/11/10 07:25:31;;;;;;;0.70;0.40;;;;;;;;;;5042589;28;20409;-82
2023/11/10 07:27:57;;;;;;;0.80;0.40;;;;;;;;;;5042536;28;20406;-82
2023/11/10 07:30:23;;;;;;;0.60;0.30;;;;;;;;;;5042099;28;20417;-82
2023/11/10 07:32:50;;;;;;;0.60;0.30;;;;;;;;;;5042098;28;20394;-82
2023/11/10 07:35:17;;;;;;;0.95;0.38;;;;;;;;;;5042647;28;20415;-82
2023/11/10 07:37:46;;;;;;;0.50;0.30;;;;;;;;;;5041761;28;20390;-82
2023/11/10 07:40:13;;;;;;;0.98;0.40;;;;;;;;;;5042187;28;20375;-82
2023/11/10 07:42:42;;;;;;;0.90;0.80;;;;;;;;;;5041862;28;20880;-82
2023/11/10 07:45:15;;;;;;;0.63;0.63;;;;;;;;;;5041697;28;20460;-82
2023/11/10 07:47:45;;;;;;;0.85;0.55;;;;;;;;;;5041776;28;20387;-83
2023/11/10 07:50:11;;;;;;;1.52;0.90;;;;;;;;;;5024438;28;20896;-82
2023/11/10 07:52:38;;;;;;;1.17;0.98;;;;;;;;;;5041423;28;20450;-82
2023/11/10 07:55:04;;;;;;;1.45;1.00;;;;;;;;;;5040524;28;20780;-82
2023/11/10 07:57:33;;;;;;;1.02;0.95;;;;;;;;;;5040362;28;20411;-82
2023/11/10 08:00:00;;;;;;;1.00;0.70;;;;;;;;;;5041255;28;20418;-82
2023/11/10 08:02:26;;;;;;;2.75;2.30;;;;;;;;;;5041362;28;20394;-82
2023/11/10 08:04:52;;;;;;;0.60;0.60;;;;;;;;;;5041034;28;20403;-82
2023/11/10 08:07:19;;;;;;;1.15;1.05;;;;;;;;;;5024782;28;20801;-81
2023/11/10 08:09:46;;;;;;;1.02;0.80;;;;;;;;;;5027817;28;20994;-81
2023/11/10 08:12:12;;;;;;;1.90;0.90;;;;;;;;;;5025556;28;20486;-82
2023/11/10 08:14:40;;;;;;;0.80;0.70;;;;;;;;;;5039921;28;20442;-81
2023/11/10 08:17:06;;;;;;;1.40;0.70;;;;;;;;;;5041537;28;20418;-82
2023/11/10 08:19:32;;;;;;;0.40;0.40;;;;;;;;;;5041467;28;20371;-82
2023/11/10 08:22:00;;;;;;;0.80;0.50;;;;;;;;;;5041804;28;20388;-82
2023/11/10 08:24:26;;;;;;;0.30;0.20;;;;;;;;;;5041560;28;20387;-82
2023/11/10 08:26:55;;;;;;;0.80;0.40;;;;;;;;;;5041733;28;20402;-82
2023/11/10 08:29:21;;;;;;;0.95;0.68;;;;;;;;;;5041921;28;20737;-83
2023/11/10 08:31:49;;;;;;;0.30;0.30;;;;;;;;;;5040283;28;20379;-82
2023/11/10 08:34:15;;;;;;;0.40;0.35;;;;;;;;;;5041880;28;20435;-83
2023/11/10 08:36:42;;;;;;;0.70;0.35;;;;;;;;;;5042228;28;20389;-82
2023/11/10 08:39:08;;;;;;;0.30;0.30;;;;;;;;;;5043433;28;20394;-82
2023/11/10 08:41:34;;;;;;;0.68;0.40;;;;;;;;;;5041887;28;20387;-81
2023/11/10 08:44:02;;;;;;;0.30;0.30;;;;;;;;;;5054998;28;20406;-81
2023/11/10 08:46:28;;;;;;;0.77;0.50;;;;;;;;;;5040132;28;20387;-81
2023/11/10 08:48:54;;;;;;;0.90;0.50;;;;;;;;;;5040065;28;20449;-82
2023/11/10 08:51:20;;;;;;;0.60;0.47;;;;;;;;;;5040469;28;20383;-83
2023/11/10 08:53:46;;;;;;;0.82;0.60;;;;;;;;;;5040078;28;20430;-82
2023/11/10 08:56:13;;;;;;;0.63;0.50;;;;;;;;;;5039926;28;20403;-82
2023/11/10 08:58:39;;;;;;;1.40;0.70;;;;;;;;;;5040680;28;20796;-82
2023/11/10 09:01:06;;;;;;;1.33;0.73;;;;;;;;;;5039887;28;20780;-83
2023/11/10 09:03:33;;;;;;;0.63;0.60;;;;;;;;;;5023672;28;20391;-82
2023/11/10 09:05:59;;;;;;;0.40;0.30;;;;;;;;;;5041719;28;20398;-82
2023/11/10 09:08:25;;;;;;;0.50;0.50;;;;;;;;;;5041208;28;20391;-82
2023/11/10 09:10:51;;;;;;;3.13;0.60;;;;;;;;;;5042072;28;20387;-82
2023/11/10 09:13:17;;;;;;;0.63;0.40;;;;;;;;;;5041414;28;20861;-82
2023/11/10 09:15:43;;;;;;;0.57;0.40;;;;;;;;;;5042428;28;20501;-82
2023/11/10 09:18:09;;;;;;;0.55;0.40;;;;;;;;;;5041232;28;20394;-83
2023/11/10 09:20:35;;;;;;;0.85;0.60;;;;;;;;;;5040334;28;20379;-82
2023/11/10 09:23:01;;;;;;;1.00;0.60;;;;;;;;;;5041247;28;20849;-82
2023/11/10 09:25:27;;;;;;;0.63;0.40;;;;;;;;;;5041450;28;20378;-82
2023/11/10 09:27:56;;;;;;;0.75;0.40;;;;;;;;;;5040783;28;20410;-82
2023/11/10 09:30:24;;;;;;;0.52;0.40;;;;;;;;;;5041273;28;20383;-82
2023/11/10 09:32:51;;;;;;;3.90;0.50;;;;;;;;;;5022801;28;20387;-82
2023/11/10 09:35:17;;;;;;;1.20;0.50;;;;;;;;;;5041523;28;20415;-83
2023/11/10 09:37:46;;;;;;;1.07;0.50;;;;;;;;;;5040987;28;20810;-83
2023/11/10 09:40:13;;;;;;;1.77;0.50;;;;;;;;;;5040852;28;20839;-82
2023/11/10 09:42:42;;;;;;;0.40;0.40;;;;;;;;;;5041220;28;20383;-83
2023/11/10 09:45:08;;;;;;;0.57;0.50;;;;;;;;;;5041462;28;20476;-82
2023/11/10 09:47:35;;;;;;;1.20;0.47;;;;;;;;;;5023944;28;20445;-82
2023/11/10 09:50:04;;;;;;;0.40;0.40;;;;;;;;;;5042031;28;20451;-82
2023/11/10 09:52:34;;;;;;;0.50;0.40;;;;;;;;;;5023028;28;20462;-82
2023/11/10 09:55:01;;;;;;;1.08;0.47;;;;;;;;;;5041260;28;20415;-83
2023/11/10 09:57:28;;;;;;;0.63;0.50;;;;;;;;;;5023414;28;20462;-82
2023/11/10 09:59:56;;;;;;;0.60;0.45;;;;;;;;;;5022873;28;20435;-83
2023/11/10 10:02:22;;;;;;;0.80;0.65;;;;;;;;;;5039808;28;20434;-82
2023/11/10 10:04:48;;;;;;;0.75;0.55;;;;;;;;;;5022819;28;20395;-84
2023/11/10 10:07:14;;;;;;;0.80;0.80;;;;;;;;;;5024417;28;20391;-84
2023/11/10 10:09:41;;;;;;;0.60;0.60;;;;;;;;;;5060139;28;20808;-83
2023/11/10 10:12:08;;;;;;;0.70;0.50;;;;;;;;;;5058632;28;20394;-83
2023/11/10 10:14:34;;;;;;;2.20;0.77;;;;;;;;;;5042620;28;20844;-83
2023/11/10 10:17:00;;;;;;;1.30;0.60;;;;;;;;;;5058666;28;20399;-83
2023/11/10 10:19:29;;;;;;;0.77;0.45;;;;;;;;;;5043950;28;20390;-84
2023/11/10 10:21:56;;;;;;;0.60;0.30;;;;;;;;;;5057166;28;20391;-83
2023/11/10 10:24:25;;;;;;;0.65;0.50;;;;;;;;;;5058678;28;20383;-83
2023/11/10 10:26:52;;;;;;;1.60;0.60;;;;;;;;;;5059087;28;20391;-84
2023/11/10 10:29:18;;;;;;;0.88;0.60;;;;;;;;;;5059637;28;20414;-84
2023/11/10 10:31:44;;;;;;;0.65;0.60;;;;;;;;;;5059663;28;20490;-84
2023/11/10 10:34:11;;;;;;;0.63;0.30;;;;;;;;;;5006360;28;20418;-84
2023/11/10 10:36:38;;;;;;;0.40;0.40;;;;;;;;;;5059920;28;20395;-84
2023/11/10 10:39:10;;;;;;;0.68;0.50;;;;;;;;;;5042444;28;20418;-82
2023/11/10 10:41:37;;;;;;;0.30;0.30;;;;;;;;;;5043956;28;20444;-84
2023/11/10 10:44:04;;;;;;;0.65;0.40;;;;;;;;;;5042196;28;20429;-84
2023/11/10 10:46:36;;;;;;;0.90;0.40;;;;;;;;;;5041748;28;20393;-84
2023/11/10 10:49:06;;;;;;;2.10;0.60;;;;;;;;;;5041768;28;20398;-84
2023/11/10 10:51:36;;;;;;;1.25;0.50;;;;;;;;;;5040379;28;20384;-84
2023/11/10 10:54:04;;;;;;;0.63;0.50;;;;;;;;;;5045161;28;20430;-84
2023/11/10 10:56:34;;;;;;;0.70;0.70;;;;;;;;;;5045900;28;20394;-84
2023/11/10 10:59:01;;;;;;;0.83;0.50;;;;;;;;;;5046419;28;20379;-84
2023/11/10 11:01:27;;;;;;;1.85;0.65;;;;;;;;;;5044260;28;20391;-83
2023/11/10 11:04:12;;;;;;;1.65;0.57;;;;;;;;;;5041815;28;20478;-84
2023/11/10 11:06:38;;;;;;;1.00;0.57;;;;;;;;;;5042673;28;20467;-85
2023/11/10 11:09:13;;;;;;;0.85;0.65;;;;;;;;;;5025999;28;20418;-84
2023/11/10 11:11:55;;;;;;;0.90;0.60;;;;;;;;;;5042725;28;20875;-85
2023/11/10 11:14:27;;;;;;;0.70;0.50;;;;;;;;;;5043007;28;20415;-86
2023/11/10 11:17:02;;;;;;;1.45;0.60;;;;;;;;;;5043027;28;20455;-85
2023/11/10 11:19:30;;;;;;;2.45;0.80;;;;;;;;;;5043004;28;20497;-85
2023/11/10 11:21:57;;;;;;;0.95;0.50;;;;;;;;;;5042491;28;20379;-85
2023/11/10 11:24:23;;;;;;;1.80;0.55;;;;;;;;;;5042768;28;20394;-84
2023/11/10 11:27:00;;;;;;;1.52;0.55;;;;;;;;;;5024787;28;20418;-86
2023/11/10 11:29:26;;;;;;;1.35;0.57;;;;;;;;;;5042885;28;20386;-86
2023/11/10 11:31:52;;;;;;;1.38;0.70;;;;;;;;;;5042704;28;20383;-85
2023/11/10 11:34:19;;;;;;;1.02;0.50;;;;;;;;;;5043760;28;20410;-85
2023/11/10 11:36:46;;;;;;;1.60;0.60;;;;;;;;;;5041830;28;20524;-85
2023/11/10 11:39:16;;;;;;;1.70;0.82;;;;;;;;;;5042369;28;20375;-86
2023/11/10 11:41:49;;;;;;;1.35;0.50;;;;;;;;;;5024323;28;20399;-86
2023/11/10 11:44:24;;;;;;;0.93;0.60;;;;;;;;;;5042060;28;20379;-86
2023/11/10 11:46:54;;;;;;;2.45;0.57;;;;;;;;;;5042649;28;20387;-86
2023/11/10 11:49:21;;;;;;;1.20;0.88;;;;;;;;;;5041283;28;20389;-86
2023/11/10 11:51:51;;;;;;;1.50;0.67;;;;;;;;;;5024032;28;20390;-85
2023/11/10 11:54:17;;;;;;;1.88;0.68;;;;;;;;;;5041964;28;20421;-86
2023/11/10 11:56:43;;;;;;;1.08;0.60;;;;;;;;;;5042138;28;20837;-86
2023/11/10 11:59:09;;;;;;;1.30;0.70;;;;;;;;;;5043174;28;20475;-85
2023/11/10 12:01:39;;;;;;;1.92;0.50;;;;;;;;;;5025934;28;20387;-86
2023/11/10 12:04:08;;;;;;;2.03;0.55;;;;;;;;;;5042776;28;20873;-85
2023/11/10 12:06:34;;;;;;;1.10;0.60;;;;;;;;;;5043140;28;20387;-84
2023/11/10 12:09:03;;;;;;;1.55;0.70;;;;;;;;;;5046662;28;20414;-84
2023/11/10 12:11:29;;;;;;;1.10;0.40;;;;;;;;;;5044418;28;20691;-84
2023/11/10 12:13:56;;;;;;;1.60;0.60;;;;;;;;;;5044992;28;20403;-84
2023/11/10 12:16:22;;;;;;;1.15;0.50;;;;;;;;;;5045246;28;20390;-83
2023/11/10 12:18:52;;;;;;;1.80;0.57;;;;;;;;;;5045704;28;20470;-83
2023/11/10 12:21:18;;;;;;;0.93;0.40;;;;;;;;;;5044006;28;20425;-83
2023/11/10 12:23:44;;;;;;;1.00;0.50;;;;;;;;;;5038183;28;20391;-82
2023/11/10 12:26:10;;;;;;;0.95;0.52;;;;;;;;;;5025402;28;20431;-84
2023/11/10 12:28:36;;;;;;;1.52;0.50;;;;;;;;;;5045828;28;20406;-84
2023/11/10 12:31:02;;;;;;;1.20;0.43;;;;;;;;;;5044901;28;20387;-85
2023/11/10 12:33:29;;;;;;;1.40;0.57;;;;;;;;;;5043696;28;20387;-85
2023/11/10 12:35:56;;;;;;;2.35;0.60;;;;;;;;;;5043324;28;20509;-85
2023/11/10 12:38:25;;;;;;;2.03;0.50;;;;;;;;;;5042309;28;20375;-85
2023/11/10 12:40:55;;;;;;;1.42;0.85;;;;;;;;;;5040327;28;20391;-85
2023/11/10 12:43:23;;;;;;;1.27;0.50;;;;;;;;;;5038137;28;20425;-85
2023/11/10 12:45:49;;;;;;;1.77;0.65;;;;;;;;;;5037477;28;20390;-84
2023/11/10 12:48:16;;;;;;;1.73;0.70;;;;;;;;;;5021003;28;20768;-84
2023/11/10 12:50:49;;;;;;;1.50;0.65;;;;;;;;;;5037847;28;20379;-85
2023/11/10 12:53:20;;;;;;;0.80;0.50;;;;;;;;;;5037769;28;20856;-84
2023/11/10 12:55:46;;;;;;;0.82;0.40;;;;;;;;;;5038672;28;20415;-84
2023/11/10 12:58:13;;;;;;;1.48;0.70;;;;;;;;;;5020438;28;20753;-84
2023/11/10 13:00:42;;;;;;;2.17;0.80;;;;;;;;;;5038106;28;20395;-84
2023/11/10 13:03:08;;;;;;;0.93;0.60;;;;;;;;;;5038147;28;20387;-85
2023/11/10 13:05:35;;;;;;;1.65;0.55;;;;;;;;;;5034980;28;20437;-85
2023/11/10 13:08:01;;;;;;;1.88;0.80;;;;;;;;;;5020451;28;20881;-85
2023/11/10 13:10:27;;;;;;;1.15;0.60;;;;;;;;;;5037174;28;20382;-84
2023/11/10 13:12:54;;;;;;;1.20;0.53;;;;;;;;;;5038819;28;20391;-85
2023/11/10 13:15:20;;;;;;;1.02;0.40;;;;;;;;;;5038229;28;20441;-85
2023/11/10 13:17:46;;;;;;;1.73;0.40;;;;;;;;;;5038285;28;20379;-85
2023/11/10 13:20:12;;;;;;;2.17;0.50;;;;;;;;;;5038766;28;20391;-86
2023/11/10 13:22:38;;;;;;;1.60;0.60;;;;;;;;;;5042791;28;20387;-84
2023/11/10 13:25:06;;;;;;;1.30;0.60;;;;;;;;;;5024492;28;20390;-84
2023/11/10 13:27:32;;;;;;;1.33;0.40;;;;;;;;;;5042368;28;20716;-84
2023/11/10 13:30:00;;;;;;;1.15;0.50;;;;;;;;;;5041104;28;20714;-84
2023/11/10 13:32:27;;;;;;;0.90;0.40;;;;;;;;;;5023458;28;20391;-83
2023/11/10 13:34:55;;;;;;;1.40;0.50;;;;;;;;;;5040469;28;20406;-84
2023/11/10 13:37:21;;;;;;;1.48;0.52;;;;;;;;;;5024121;28;20406;-84
2023/11/10 13:39:47;;;;;;;1.83;0.50;;;;;;;;;;5023877;28;20391;-85
2023/11/10 13:42:13;;;;;;;1.38;0.50;;;;;;;;;;5023832;28;20379;-84
2023/11/10 13:44:39;;;;;;;1.77;0.90;;;;;;;;;;5042305;28;20383;-84
2023/11/10 13:47:06;;;;;;;1.10;0.43;;;;;;;;;;5023807;28;20387;-85
2023/11/10 13:49:32;;;;;;;1.90;0.50;;;;;;;;;;5024041;28;20387;-86
2023/11/10 13:51:59;;;;;;;1.83;0.50;;;;;;;;;;5043407;28;20395;-85
2023/11/10 13:54:28;;;;;;;2.40;0.57;;;;;;;;;;5024806;28;20515;-85
2023/11/10 13:56:59;;;;;;;1.60;0.60;;;;;;;;;;5035583;28;20803;-84
2023/11/10 13:59:25;;;;;;;1.17;0.53;;;;;;;;;;5044175;28;20388;-85
2023/11/10 14:01:51;;;;;;;1.15;0.45;;;;;;;;;;5043329;28;20864;-84
2023/11/10 14:04:19;;;;;;;1.70;0.60;;;;;;;;;;5042186;28;20418;-84
2023/11/10 14:06:47;;;;;;;2.95;0.70;;;;;;;;;;5038733;28;20825;-85
2023/11/10 14:09:13;;;;;;;1.85;0.55;;;;;;;;;;5042191;28;20383;-85
2023/11/10 14:11:40;;;;;;;2.00;0.57;;;;;;;;;;5026271;28;20387;-86
2023/11/10 14:14:10;;;;;;;1.75;0.65;;;;;;;;;;5042443;28;20415;-84
2023/11/10 14:16:36;;;;;;;1.35;0.52;;;;;;;;;;5042879;28;20411;-85
2023/11/10 14:19:02;;;;;;;1.25;0.60;;;;;;;;;;5023870;28;20423;-85
2023/11/10 14:21:28;;;;;;;1.25;0.70;;;;;;;;;;5042937;28;20383;-83
2023/11/10 14:23:55;;;;;;;1.40;0.60;;;;;;;;;;5024848;28;20454;-84
2023/11/10 14:26:24;;;;;;;1.60;0.57;;;;;;;;;;5024600;28;20399;-84
2023/11/10 14:28:52;;;;;;;2.50;0.65;;;;;;;;;;5041754;28;20416;-85
2023/11/10 14:31:19;;;;;;;1.83;0.70;;;;;;;;;;5040269;28;20386;-81
2023/11/10 14:33:46;;;;;;;2.60;0.73;;;;;;;;;;5035975;28;20391;-83
2023/11/10 14:36:13;;;;;;;1.50;0.60;;;;;;;;;;5036923;28;20418;-83
2023/11/10 14:38:40;;;;;;;1.65;0.73;;;;;;;;;;5036518;28;20395;-81
2023/11/10 14:41:09;;;;;;;2.97;0.80;;;;;;;;;;5037491;28;20394;-83